sensor_id;sensor_type;location;lat;lon;timestamp;P1;durP1;ratioP1;P2;durP2;ratioP2
10045;SDS011;5063;50.878;4.742;2023-12-22T00:01:09;12.20;;;3.47;;
10045;SDS011;5063;50.878;4.742;2023-12-22T00:03:35;11.77;;;3.40;;
10045;SDS011;5063;50.878;4.742;2023-12-22T00:06:00;11.43;;;3.00;;
10045;SDS011;5063;50.878;4.742;2023-12-22T00:08:26;11.80;;;3.33;;
10045;SDS011;5063;50.878;4.742;2023-12-22T00:10:52;15.93;;;3.47;;
10045;SDS011;5063;50.878;4.742;2023-12-22T00:13:17;15.80;;;3.53;;
10045;SDS011;5063;50.878;4.742;2023-12-22T00:15:43;14.47;;;3.13;;
10045;SDS011;5063;50.878;4.742;2023-12-22T00:18:09;11.80;;;3.50;;
10045;SDS011;5063;50.878;4.742;2023-12-22T00:20:35;12.60;;;2.67;;
10045;SDS011;5063;50.878;4.742;2023-12-22T00:23:01;15.17;;;3.40;;
10045;SDS011;5063;50.878;4.742;2023-12-22T00:25:26;15.83;;;3.63;;
10045;SDS011;5063;50.878;4.742;2023-12-22T00:27:52;12.00;;;2.83;;
10045;SDS011;5063;50.878;4.742;2023-12-22T00:30:18;11.90;;;3.13;;
10045;SDS011;5063;50.878;4.742;2023-12-22T00:32:43;15.73;;;3.97;;
10045;SDS011;5063;50.878;4.742;2023-12-22T00:35:09;12.43;;;3.13;;
10045;SDS011;5063;50.878;4.742;2023-12-22T00:37:35;9.20;;;2.63;;
10045;SDS011;5063;50.878;4.742;2023-12-22T00:40:01;12.10;;;3.33;;
10045;SDS011;5063;50.878;4.742;2023-12-22T00:42:29;7.70;;;2.80;;
10045;SDS011;5063;50.878;4.742;2023-12-22T00:44:55;9.47;;;2.97;;
10045;SDS011;5063;50.878;4.742;2023-12-22T00:47:20;10.47;;;2.83;;
10045;SDS011;5063;50.878;4.742;2023-12-22T00:49:46;9.50;;;2.67;;
10045;SDS011;5063;50.878;4.742;2023-12-22T00:52:12;10.70;;;2.67;;
10045;SDS011;5063;50.878;4.742;2023-12-22T00:54:37;7.33;;;2.70;;
10045;SDS011;5063;50.878;4.742;2023-12-22T00:57:03;5.83;;;2.50;;
10045;SDS011;5063;50.878;4.742;2023-12-22T00:59:29;12.57;;;2.37;;
10045;SDS011;5063;50.878;4.742;2023-12-22T01:01:55;8.07;;;2.10;;
10045;SDS011;5063;50.878;4.742;2023-12-22T01:04:21;10.60;;;3.20;;
10045;SDS011;5063;50.878;4.742;2023-12-22T01:06:47;11.47;;;3.23;;
10045;SDS011;5063;50.878;4.742;2023-12-22T01:09:12;10.50;;;2.87;;
10045;SDS011;5063;50.878;4.742;2023-12-22T01:11:40;10.47;;;3.30;;
10045;SDS011;5063;50.878;4.742;2023-12-22T01:14:06;12.07;;;2.93;;
10045;SDS011;5063;50.878;4.742;2023-12-22T01:16:32;14.80;;;3.63;;
10045;SDS011;5063;50.878;4.742;2023-12-22T01:18:58;12.07;;;3.70;;
10045;SDS011;5063;50.878;4.742;2023-12-22T01:21:24;18.17;;;4.07;;
10045;SDS011;5063;50.878;4.742;2023-12-22T01:23:49;13.77;;;3.70;;
10045;SDS011;5063;50.878;4.742;2023-12-22T01:26:15;19.87;;;4.03;;
10045;SDS011;5063;50.878;4.742;2023-12-22T01:28:41;14.63;;;4.63;;
10045;SDS011;5063;50.878;4.742;2023-12-22T01:31:06;10.90;;;3.13;;
10045;SDS011;5063;50.878;4.742;2023-12-22T01:33:32;14.73;;;3.93;;
10045;SDS011;5063;50.878;4.742;2023-12-22T01:35:58;8.27;;;3.57;;
10045;SDS011;5063;50.878;4.742;2023-12-22T01:38:24;10.47;;;3.07;;
10045;SDS011;5063;50.878;4.742;2023-12-22T01:40:50;12.37;;;3.40;;
10045;SDS011;5063;50.878;4.742;2023-12-22T01:43:15;12.77;;;3.07;;
10045;SDS011;5063;50.878;4.742;2023-12-22T01:45:47;17.37;;;4.20;;
10045;SDS011;5063;50.878;4.742;2023-12-22T01:48:14;15.43;;;4.37;;
10045;SDS011;5063;50.878;4.742;2023-12-22T01:50:40;11.23;;;3.70;;
10045;SDS011;5063;50.878;4.742;2023-12-22T01:53:06;20.53;;;4.13;;
10045;SDS011;5063;50.878;4.742;2023-12-22T01:55:32;18.17;;;3.90;;
10045;SDS011;5063;50.878;4.742;2023-12-22T01:57:58;17.47;;;4.50;;
10045;SDS011;5063;50.878;4.742;2023-12-22T02:00:24;12.47;;;3.67;;
10045;SDS011;5063;50.878;4.742;2023-12-22T02:02:50;16.90;;;4.43;;
10045;SDS011;5063;50.878;4.742;2023-12-22T02:05:17;9.53;;;3.07;;
10045;SDS011;5063;50.878;4.742;2023-12-22T02:07:43;18.73;;;4.67;;
10045;SDS011;5063;50.878;4.742;2023-12-22T02:10:10;19.77;;;4.27;;
10045;SDS011;5063;50.878;4.742;2023-12-22T02:12:36;14.13;;;3.97;;
10045;SDS011;5063;50.878;4.742;2023-12-22T02:15:02;12.90;;;3.73;;
10045;SDS011;5063;50.878;4.742;2023-12-22T02:20:09;17.10;;;3.33;;
10045;SDS011;5063;50.878;4.742;2023-12-22T02:22:35;15.30;;;3.57;;
10045;SDS011;5063;50.878;4.742;2023-12-22T02:25:01;12.23;;;3.83;;
10045;SDS011;5063;50.878;4.742;2023-12-22T02:27:44;17.57;;;3.73;;
10045;SDS011;5063;50.878;4.742;2023-12-22T02:30:18;19.40;;;3.53;;
10045;SDS011;5063;50.878;4.742;2023-12-22T02:33:07;17.87;;;3.87;;
10045;SDS011;5063;50.878;4.742;2023-12-22T02:35:36;12.27;;;3.20;;
10045;SDS011;5063;50.878;4.742;2023-12-22T02:38:03;13.67;;;3.50;;
10045;SDS011;5063;50.878;4.742;2023-12-22T02:40:31;14.43;;;4.30;;
10045;SDS011;5063;50.878;4.742;2023-12-22T02:42:59;13.03;;;3.90;;
10045;SDS011;5063;50.878;4.742;2023-12-22T02:45:26;16.33;;;3.77;;
10045;SDS011;5063;50.878;4.742;2023-12-22T02:47:52;12.13;;;3.43;;
10045;SDS011;5063;50.878;4.742;2023-12-22T02:50:18;18.00;;;4.13;;
10045;SDS011;5063;50.878;4.742;2023-12-22T02:52:43;14.13;;;3.40;;
10045;SDS011;5063;50.878;4.742;2023-12-22T02:55:09;12.77;;;3.53;;
10045;SDS011;5063;50.878;4.742;2023-12-22T02:57:35;16.70;;;3.33;;
10045;SDS011;5063;50.878;4.742;2023-12-22T03:00:01;12.30;;;3.63;;
10045;SDS011;5063;50.878;4.742;2023-12-22T03:02:26;11.33;;;2.77;;
10045;SDS011;5063;50.878;4.742;2023-12-22T03:04:52;11.03;;;3.20;;
10045;SDS011;5063;50.878;4.742;2023-12-22T03:07:18;7.67;;;2.87;;
10045;SDS011;5063;50.878;4.742;2023-12-22T03:09:44;8.60;;;2.80;;
10045;SDS011;5063;50.878;4.742;2023-12-22T03:12:09;8.33;;;2.57;;
10045;SDS011;5063;50.878;4.742;2023-12-22T03:14:35;7.23;;;2.27;;
10045;SDS011;5063;50.878;4.742;2023-12-22T03:17:02;10.43;;;2.97;;
10045;SDS011;5063;50.878;4.742;2023-12-22T03:19:29;9.43;;;3.10;;
10045;SDS011;5063;50.878;4.742;2023-12-22T03:21:55;11.50;;;2.50;;
10045;SDS011;5063;50.878;4.742;2023-12-22T03:24:24;6.30;;;2.30;;
10045;SDS011;5063;50.878;4.742;2023-12-22T03:26:53;6.90;;;2.50;;
10045;SDS011;5063;50.878;4.742;2023-12-22T03:29:19;5.83;;;2.37;;
10045;SDS011;5063;50.878;4.742;2023-12-22T03:31:45;4.83;;;2.30;;
10045;SDS011;5063;50.878;4.742;2023-12-22T03:34:11;17.10;;;3.07;;
10045;SDS011;5063;50.878;4.742;2023-12-22T03:36:37;8.47;;;2.60;;
10045;SDS011;5063;50.878;4.742;2023-12-22T03:39:03;13.27;;;2.60;;
10045;SDS011;5063;50.878;4.742;2023-12-22T03:41:29;8.00;;;2.70;;
10045;SDS011;5063;50.878;4.742;2023-12-22T03:43:56;9.03;;;2.50;;
10045;SDS011;5063;50.878;4.742;2023-12-22T03:46:22;10.07;;;3.23;;
10045;SDS011;5063;50.878;4.742;2023-12-22T03:48:48;7.47;;;2.43;;
10045;SDS011;5063;50.878;4.742;2023-12-22T03:51:17;15.73;;;3.07;;
10045;SDS011;5063;50.878;4.742;2023-12-22T03:53:42;10.30;;;2.83;;
10045;SDS011;5063;50.878;4.742;2023-12-22T03:56:08;13.23;;;2.97;;
10045;SDS011;5063;50.878;4.742;2023-12-22T03:58:37;8.23;;;3.20;;
10045;SDS011;5063;50.878;4.742;2023-12-22T04:01:03;13.03;;;3.63;;
10045;SDS011;5063;50.878;4.742;2023-12-22T04:03:29;13.90;;;3.47;;
10045;SDS011;5063;50.878;4.742;2023-12-22T04:05:55;13.67;;;3.40;;
10045;SDS011;5063;50.878;4.742;2023-12-22T04:08:21;14.20;;;3.43;;
10045;SDS011;5063;50.878;4.742;2023-12-22T04:10:47;10.73;;;3.27;;
10045;SDS011;5063;50.878;4.742;2023-12-22T04:13:13;11.93;;;3.00;;
10045;SDS011;5063;50.878;4.742;2023-12-22T04:15:39;14.60;;;3.30;;
10045;SDS011;5063;50.878;4.742;2023-12-22T04:18:05;11.83;;;3.53;;
10045;SDS011;5063;50.878;4.742;2023-12-22T04:20:31;12.00;;;3.30;;
10045;SDS011;5063;50.878;4.742;2023-12-22T04:22:57;10.13;;;3.07;;
10045;SDS011;5063;50.878;4.742;2023-12-22T04:25:23;12.13;;;3.23;;
10045;SDS011;5063;50.878;4.742;2023-12-22T04:27:50;11.40;;;2.83;;
10045;SDS011;5063;50.878;4.742;2023-12-22T04:30:16;16.27;;;4.03;;
10045;SDS011;5063;50.878;4.742;2023-12-22T04:32:42;7.57;;;2.50;;
10045;SDS011;5063;50.878;4.742;2023-12-22T04:35:07;14.33;;;3.27;;
10045;SDS011;5063;50.878;4.742;2023-12-22T04:37:33;13.13;;;4.10;;
10045;SDS011;5063;50.878;4.742;2023-12-22T04:39:59;17.80;;;3.37;;
10045;SDS011;5063;50.878;4.742;2023-12-22T04:42:25;17.40;;;3.57;;
10045;SDS011;5063;50.878;4.742;2023-12-22T04:44:51;14.97;;;4.33;;
10045;SDS011;5063;50.878;4.742;2023-12-22T04:47:17;20.90;;;4.97;;
10045;SDS011;5063;50.878;4.742;2023-12-22T04:49:43;20.60;;;4.33;;
10045;SDS011;5063;50.878;4.742;2023-12-22T04:52:10;14.20;;;4.13;;
10045;SDS011;5063;50.878;4.742;2023-12-22T04:54:36;13.20;;;4.03;;
10045;SDS011;5063;50.878;4.742;2023-12-22T04:57:02;11.17;;;3.60;;
10045;SDS011;5063;50.878;4.742;2023-12-22T04:59:28;16.30;;;3.90;;
10045;SDS011;5063;50.878;4.742;2023-12-22T05:01:54;12.43;;;4.13;;
10045;SDS011;5063;50.878;4.742;2023-12-22T05:04:19;21.83;;;4.40;;
10045;SDS011;5063;50.878;4.742;2023-12-22T05:06:46;17.90;;;4.23;;
10045;SDS011;5063;50.878;4.742;2023-12-22T05:09:12;22.93;;;4.37;;
10045;SDS011;5063;50.878;4.742;2023-12-22T05:11:38;19.40;;;4.30;;
10045;SDS011;5063;50.878;4.742;2023-12-22T05:14:03;21.87;;;5.00;;
10045;SDS011;5063;50.878;4.742;2023-12-22T05:16:29;13.33;;;4.27;;
10045;SDS011;5063;50.878;4.742;2023-12-22T05:18:59;19.50;;;3.80;;
10045;SDS011;5063;50.878;4.742;2023-12-22T05:21:25;21.13;;;4.83;;
10045;SDS011;5063;50.878;4.742;2023-12-22T05:23:52;17.33;;;4.33;;
10045;SDS011;5063;50.878;4.742;2023-12-22T05:26:19;20.57;;;5.50;;
10045;SDS011;5063;50.878;4.742;2023-12-22T05:28:45;23.30;;;4.83;;
10045;SDS011;5063;50.878;4.742;2023-12-22T05:31:12;24.30;;;4.90;;
10045;SDS011;5063;50.878;4.742;2023-12-22T05:33:37;16.43;;;4.67;;
10045;SDS011;5063;50.878;4.742;2023-12-22T05:36:03;23.10;;;5.87;;
10045;SDS011;5063;50.878;4.742;2023-12-22T05:38:29;21.57;;;5.63;;
10045;SDS011;5063;50.878;4.742;2023-12-22T05:40:56;21.57;;;5.67;;
10045;SDS011;5063;50.878;4.742;2023-12-22T05:43:22;17.20;;;5.17;;
10045;SDS011;5063;50.878;4.742;2023-12-22T05:45:47;20.20;;;4.47;;
10045;SDS011;5063;50.878;4.742;2023-12-22T05:48:13;17.67;;;4.00;;
10045;SDS011;5063;50.878;4.742;2023-12-22T05:50:39;23.87;;;5.40;;
10045;SDS011;5063;50.878;4.742;2023-12-22T05:53:04;23.43;;;4.57;;
10045;SDS011;5063;50.878;4.742;2023-12-22T05:55:30;19.97;;;5.00;;
10045;SDS011;5063;50.878;4.742;2023-12-22T05:57:56;28.03;;;5.67;;
10045;SDS011;5063;50.878;4.742;2023-12-22T06:00:22;27.23;;;5.20;;
10045;SDS011;5063;50.878;4.742;2023-12-22T06:02:48;28.17;;;5.77;;
10045;SDS011;5063;50.878;4.742;2023-12-22T06:05:14;17.57;;;4.60;;
10045;SDS011;5063;50.878;4.742;2023-12-22T06:07:40;17.10;;;4.83;;
10045;SDS011;5063;50.878;4.742;2023-12-22T06:10:06;18.67;;;4.87;;
10045;SDS011;5063;50.878;4.742;2023-12-22T06:12:34;17.63;;;4.53;;
10045;SDS011;5063;50.878;4.742;2023-12-22T06:15:00;16.93;;;4.73;;
10045;SDS011;5063;50.878;4.742;2023-12-22T06:17:26;21.30;;;5.43;;
10045;SDS011;5063;50.878;4.742;2023-12-22T06:19:52;22.57;;;5.43;;
10045;SDS011;5063;50.878;4.742;2023-12-22T06:22:17;24.50;;;6.17;;
10045;SDS011;5063;50.878;4.742;2023-12-22T06:24:43;18.60;;;4.97;;
10045;SDS011;5063;50.878;4.742;2023-12-22T06:27:09;23.27;;;5.07;;
10045;SDS011;5063;50.878;4.742;2023-12-22T06:29:35;14.87;;;5.00;;
10045;SDS011;5063;50.878;4.742;2023-12-22T06:32:01;20.50;;;4.87;;
10045;SDS011;5063;50.878;4.742;2023-12-22T06:34:27;19.47;;;4.60;;
10045;SDS011;5063;50.878;4.742;2023-12-22T06:36:52;24.40;;;5.43;;
10045;SDS011;5063;50.878;4.742;2023-12-22T06:39:18;23.03;;;4.57;;
10045;SDS011;5063;50.878;4.742;2023-12-22T06:41:44;19.73;;;4.20;;
10045;SDS011;5063;50.878;4.742;2023-12-22T06:44:10;19.30;;;4.57;;
10045;SDS011;5063;50.878;4.742;2023-12-22T06:46:36;15.47;;;4.47;;
10045;SDS011;5063;50.878;4.742;2023-12-22T06:49:02;21.43;;;4.97;;
10045;SDS011;5063;50.878;4.742;2023-12-22T06:51:28;15.23;;;3.90;;
10045;SDS011;5063;50.878;4.742;2023-12-22T06:54:01;21.47;;;4.43;;
10045;SDS011;5063;50.878;4.742;2023-12-22T06:56:28;16.23;;;4.13;;
10045;SDS011;5063;50.878;4.742;2023-12-22T06:59:00;20.30;;;4.37;;
10045;SDS011;5063;50.878;4.742;2023-12-22T07:01:30;16.63;;;3.57;;
10045;SDS011;5063;50.878;4.742;2023-12-22T07:03:57;15.43;;;4.00;;
10045;SDS011;5063;50.878;4.742;2023-12-22T07:06:25;11.77;;;3.30;;
10045;SDS011;5063;50.878;4.742;2023-12-22T07:11:51;16.07;;;3.73;;
10045;SDS011;5063;50.878;4.742;2023-12-22T07:14:21;9.27;;;3.13;;
10045;SDS011;5063;50.878;4.742;2023-12-22T07:16:47;13.50;;;3.57;;
10045;SDS011;5063;50.878;4.742;2023-12-22T07:19:12;13.57;;;3.67;;
10045;SDS011;5063;50.878;4.742;2023-12-22T07:21:42;8.20;;;2.93;;
10045;SDS011;5063;50.878;4.742;2023-12-22T07:24:07;14.07;;;3.67;;
10045;SDS011;5063;50.878;4.742;2023-12-22T07:26:33;10.47;;;3.53;;
10045;SDS011;5063;50.878;4.742;2023-12-22T07:28:59;12.93;;;3.50;;
10045;SDS011;5063;50.878;4.742;2023-12-22T07:31:25;12.40;;;3.10;;
10045;SDS011;5063;50.878;4.742;2023-12-22T07:33:51;9.67;;;2.53;;
10045;SDS011;5063;50.878;4.742;2023-12-22T07:36:17;14.63;;;3.40;;
10045;SDS011;5063;50.878;4.742;2023-12-22T07:38:46;12.67;;;3.17;;
10045;SDS011;5063;50.878;4.742;2023-12-22T07:41:12;9.23;;;2.60;;
10045;SDS011;5063;50.878;4.742;2023-12-22T07:43:38;11.70;;;3.13;;
10045;SDS011;5063;50.878;4.742;2023-12-22T07:46:03;10.43;;;2.70;;
10045;SDS011;5063;50.878;4.742;2023-12-22T07:48:30;9.80;;;2.73;;
10045;SDS011;5063;50.878;4.742;2023-12-22T07:50:55;8.17;;;2.57;;
10045;SDS011;5063;50.878;4.742;2023-12-22T07:53:21;8.27;;;2.50;;
10045;SDS011;5063;50.878;4.742;2023-12-22T07:55:47;9.73;;;2.83;;
10045;SDS011;5063;50.878;4.742;2023-12-22T07:58:13;7.33;;;2.30;;
10045;SDS011;5063;50.878;4.742;2023-12-22T08:00:39;9.27;;;3.10;;
10045;SDS011;5063;50.878;4.742;2023-12-22T08:03:05;11.40;;;3.07;;
10045;SDS011;5063;50.878;4.742;2023-12-22T08:05:30;9.43;;;2.80;;
10045;SDS011;5063;50.878;4.742;2023-12-22T08:07:56;9.03;;;2.57;;
10045;SDS011;5063;50.878;4.742;2023-12-22T08:10:22;5.27;;;2.20;;
10045;SDS011;5063;50.878;4.742;2023-12-22T08:12:48;7.90;;;2.33;;
10045;SDS011;5063;50.878;4.742;2023-12-22T08:15:14;7.47;;;2.13;;
10045;SDS011;5063;50.878;4.742;2023-12-22T08:17:46;10.67;;;2.20;;
10045;SDS011;5063;50.878;4.742;2023-12-22T08:20:17;4.90;;;2.20;;
10045;SDS011;5063;50.878;4.742;2023-12-22T08:22:44;8.17;;;2.10;;
10045;SDS011;5063;50.878;4.742;2023-12-22T08:25:14;5.17;;;1.93;;
10045;SDS011;5063;50.878;4.742;2023-12-22T08:27:40;5.30;;;1.70;;
10045;SDS011;5063;50.878;4.742;2023-12-22T08:30:07;5.90;;;1.80;;
10045;SDS011;5063;50.878;4.742;2023-12-22T08:32:33;4.10;;;1.90;;
10045;SDS011;5063;50.878;4.742;2023-12-22T08:34:59;2.80;;;1.90;;
10045;SDS011;5063;50.878;4.742;2023-12-22T08:37:25;3.67;;;1.70;;
10045;SDS011;5063;50.878;4.742;2023-12-22T08:39:50;5.33;;;1.80;;
10045;SDS011;5063;50.878;4.742;2023-12-22T08:42:17;3.13;;;1.93;;
10045;SDS011;5063;50.878;4.742;2023-12-22T08:44:43;3.53;;;1.97;;
10045;SDS011;5063;50.878;4.742;2023-12-22T08:47:09;3.30;;;1.93;;
10045;SDS011;5063;50.878;4.742;2023-12-22T08:49:35;3.03;;;1.87;;
10045;SDS011;5063;50.878;4.742;2023-12-22T08:52:00;4.67;;;2.33;;
10045;SDS011;5063;50.878;4.742;2023-12-22T08:54:28;2.93;;;2.30;;
10045;SDS011;5063;50.878;4.742;2023-12-22T08:56:55;2.27;;;2.00;;
10045;SDS011;5063;50.878;4.742;2023-12-22T08:59:20;2.93;;;2.10;;
10045;SDS011;5063;50.878;4.742;2023-12-22T09:01:46;5.20;;;2.20;;
10045;SDS011;5063;50.878;4.742;2023-12-22T09:04:12;5.30;;;2.83;;
10045;SDS011;5063;50.878;4.742;2023-12-22T09:06:38;2.53;;;2.10;;
10045;SDS011;5063;50.878;4.742;2023-12-22T09:09:04;2.77;;;2.30;;
10045;SDS011;5063;50.878;4.742;2023-12-22T09:11:31;4.43;;;2.43;;
10045;SDS011;5063;50.878;4.742;2023-12-22T09:13:57;5.70;;;2.60;;
10045;SDS011;5063;50.878;4.742;2023-12-22T09:16:23;5.00;;;3.10;;
10045;SDS011;5063;50.878;4.742;2023-12-22T09:18:52;3.73;;;2.63;;
10045;SDS011;5063;50.878;4.742;2023-12-22T09:21:18;6.53;;;2.50;;
10045;SDS011;5063;50.878;4.742;2023-12-22T09:23:44;4.53;;;3.00;;
10045;SDS011;5063;50.878;4.742;2023-12-22T09:26:14;4.97;;;3.03;;
10045;SDS011;5063;50.878;4.742;2023-12-22T09:28:41;5.67;;;2.87;;
10045;SDS011;5063;50.878;4.742;2023-12-22T09:31:07;4.33;;;3.23;;
10045;SDS011;5063;50.878;4.742;2023-12-22T09:33:34;4.33;;;2.57;;
10045;SDS011;5063;50.878;4.742;2023-12-22T09:36:00;4.33;;;2.83;;
10045;SDS011;5063;50.878;4.742;2023-12-22T09:38:26;4.47;;;2.70;;
10045;SDS011;5063;50.878;4.742;2023-12-22T09:40:53;6.60;;;2.77;;
10045;SDS011;5063;50.878;4.742;2023-12-22T09:43:19;4.00;;;2.43;;
10045;SDS011;5063;50.878;4.742;2023-12-22T09:45:45;4.63;;;2.90;;
10045;SDS011;5063;50.878;4.742;2023-12-22T09:48:12;9.33;;;3.13;;
10045;SDS011;5063;50.878;4.742;2023-12-22T09:50:43;5.63;;;2.50;;
10045;SDS011;5063;50.878;4.742;2023-12-22T09:53:13;5.07;;;2.90;;
10045;SDS011;5063;50.878;4.742;2023-12-22T09:55:40;5.23;;;2.60;;
10045;SDS011;5063;50.878;4.742;2023-12-22T09:58:08;5.00;;;2.53;;
10045;SDS011;5063;50.878;4.742;2023-12-22T10:00:35;3.93;;;2.37;;
10045;SDS011;5063;50.878;4.742;2023-12-22T10:03:03;8.33;;;2.40;;
10045;SDS011;5063;50.878;4.742;2023-12-22T10:05:31;5.20;;;2.43;;
10045;SDS011;5063;50.878;4.742;2023-12-22T10:07:57;4.83;;;2.40;;
10045;SDS011;5063;50.878;4.742;2023-12-22T10:10:25;3.93;;;2.33;;
10045;SDS011;5063;50.878;4.742;2023-12-22T10:12:54;4.10;;;2.60;;
10045;SDS011;5063;50.878;4.742;2023-12-22T10:15:20;8.47;;;2.40;;
10045;SDS011;5063;50.878;4.742;2023-12-22T10:17:49;4.27;;;1.77;;
10045;SDS011;5063;50.878;4.742;2023-12-22T10:20:16;4.03;;;1.80;;
10045;SDS011;5063;50.878;4.742;2023-12-22T10:22:42;3.83;;;1.40;;
10045;SDS011;5063;50.878;4.742;2023-12-22T10:25:08;3.33;;;1.20;;
10045;SDS011;5063;50.878;4.742;2023-12-22T10:27:35;2.10;;;1.60;;
10045;SDS011;5063;50.878;4.742;2023-12-22T10:30:02;5.30;;;1.57;;
10045;SDS011;5063;50.878;4.742;2023-12-22T10:32:29;2.20;;;1.10;;
10045;SDS011;5063;50.878;4.742;2023-12-22T10:34:55;2.93;;;1.30;;
10045;SDS011;5063;50.878;4.742;2023-12-22T10:37:24;3.40;;;1.40;;
10045;SDS011;5063;50.878;4.742;2023-12-22T10:39:54;4.10;;;1.20;;
10045;SDS011;5063;50.878;4.742;2023-12-22T10:42:20;6.57;;;1.80;;
10045;SDS011;5063;50.878;4.742;2023-12-22T10:44:46;4.63;;;1.50;;
10045;SDS011;5063;50.878;4.742;2023-12-22T10:47:13;3.10;;;1.43;;
10045;SDS011;5063;50.878;4.742;2023-12-22T10:49:39;1.57;;;1.10;;
10045;SDS011;5063;50.878;4.742;2023-12-22T10:52:05;5.00;;;1.80;;
10045;SDS011;5063;50.878;4.742;2023-12-22T10:54:30;5.33;;;1.27;;
10045;SDS011;5063;50.878;4.742;2023-12-22T10:56:59;2.77;;;1.23;;
10045;SDS011;5063;50.878;4.742;2023-12-22T10:59:28;5.03;;;1.70;;
10045;SDS011;5063;50.878;4.742;2023-12-22T11:01:56;5.90;;;1.03;;
10045;SDS011;5063;50.878;4.742;2023-12-22T11:04:22;5.80;;;1.57;;
10045;SDS011;5063;50.878;4.742;2023-12-22T11:06:57;1.20;;;1.10;;
10045;SDS011;5063;50.878;4.742;2023-12-22T11:09:24;2.13;;;0.90;;
10045;SDS011;5063;50.878;4.742;2023-12-22T11:11:56;3.40;;;1.30;;
10045;SDS011;5063;50.878;4.742;2023-12-22T11:14:22;5.47;;;1.70;;
10045;SDS011;5063;50.878;4.742;2023-12-22T11:16:51;3.40;;;1.80;;
10045;SDS011;5063;50.878;4.742;2023-12-22T11:19:19;2.90;;;1.53;;
10045;SDS011;5063;50.878;4.742;2023-12-22T11:21:46;6.43;;;2.60;;
10045;SDS011;5063;50.878;4.742;2023-12-22T11:24:15;3.60;;;2.50;;
10045;SDS011;5063;50.878;4.742;2023-12-22T11:26:42;3.57;;;1.93;;
10045;SDS011;5063;50.878;4.742;2023-12-22T11:29:08;4.33;;;2.40;;
10045;SDS011;5063;50.878;4.742;2023-12-22T11:31:35;4.00;;;1.77;;
10045;SDS011;5063;50.878;4.742;2023-12-22T11:34:02;7.30;;;2.50;;
10045;SDS011;5063;50.878;4.742;2023-12-22T11:36:31;2.33;;;1.97;;
10045;SDS011;5063;50.878;4.742;2023-12-22T11:38:57;3.53;;;1.70;;
10045;SDS011;5063;50.878;4.742;2023-12-22T11:41:25;3.00;;;2.00;;
10045;SDS011;5063;50.878;4.742;2023-12-22T11:43:54;1.63;;;1.47;;
10045;SDS011;5063;50.878;4.742;2023-12-22T11:46:21;3.80;;;1.80;;
10045;SDS011;5063;50.878;4.742;2023-12-22T11:48:49;4.30;;;1.70;;
10045;SDS011;5063;50.878;4.742;2023-12-22T11:51:16;4.43;;;1.70;;
10045;SDS011;5063;50.878;4.742;2023-12-22T11:53:43;3.77;;;1.33;;
10045;SDS011;5063;50.878;4.742;2023-12-22T11:56:10;2.30;;;1.50;;
10045;SDS011;5063;50.878;4.742;2023-12-22T11:58:41;5.50;;;1.80;;
10045;SDS011;5063;50.878;4.742;2023-12-22T12:01:12;1.90;;;1.40;;
10045;SDS011;5063;50.878;4.742;2023-12-22T12:03:48;2.53;;;1.50;;
10045;SDS011;5063;50.878;4.742;2023-12-22T12:08:56;1.90;;;1.37;;
10045;SDS011;5063;50.878;4.742;2023-12-22T12:11:22;1.80;;;1.30;;
10045;SDS011;5063;50.878;4.742;2023-12-22T12:13:49;4.20;;;1.90;;
10045;SDS011;5063;50.878;4.742;2023-12-22T12:16:19;2.27;;;1.60;;
10045;SDS011;5063;50.878;4.742;2023-12-22T12:18:48;4.70;;;1.53;;
10045;SDS011;5063;50.878;4.742;2023-12-22T12:21:15;4.93;;;1.87;;
10045;SDS011;5063;50.878;4.742;2023-12-22T12:23:41;5.67;;;2.17;;
10045;SDS011;5063;50.878;4.742;2023-12-22T12:26:07;3.37;;;2.00;;
10045;SDS011;5063;50.878;4.742;2023-12-22T12:28:34;5.70;;;2.80;;
10045;SDS011;5063;50.878;4.742;2023-12-22T12:31:05;2.57;;;1.80;;
10045;SDS011;5063;50.878;4.742;2023-12-22T12:33:31;4.40;;;2.47;;
10045;SDS011;5063;50.878;4.742;2023-12-22T12:35:58;4.13;;;1.70;;
10045;SDS011;5063;50.878;4.742;2023-12-22T12:41:10;3.17;;;1.13;;
10045;SDS011;5063;50.878;4.742;2023-12-22T12:43:42;3.10;;;2.73;;
10045;SDS011;5063;50.878;4.742;2023-12-22T12:46:08;2.27;;;1.60;;
10045;SDS011;5063;50.878;4.742;2023-12-22T12:48:35;6.13;;;2.90;;
10045;SDS011;5063;50.878;4.742;2023-12-22T12:51:04;4.23;;;2.30;;
10045;SDS011;5063;50.878;4.742;2023-12-22T12:53:31;5.13;;;2.00;;
10045;SDS011;5063;50.878;4.742;2023-12-22T12:56:00;2.93;;;1.73;;
10045;SDS011;5063;50.878;4.742;2023-12-22T12:58:30;3.53;;;2.03;;
10045;SDS011;5063;50.878;4.742;2023-12-22T13:01:04;7.03;;;2.13;;
10045;SDS011;5063;50.878;4.742;2023-12-22T13:03:32;5.30;;;1.70;;
10045;SDS011;5063;50.878;4.742;2023-12-22T13:06:07;5.47;;;2.13;;
10045;SDS011;5063;50.878;4.742;2023-12-22T13:08:33;5.73;;;1.87;;
10045;SDS011;5063;50.878;4.742;2023-12-22T13:11:00;4.63;;;2.00;;
10045;SDS011;5063;50.878;4.742;2023-12-22T13:13:26;3.23;;;1.77;;
10045;SDS011;5063;50.878;4.742;2023-12-22T13:15:52;3.50;;;1.73;;
10045;SDS011;5063;50.878;4.742;2023-12-22T13:18:18;5.67;;;2.60;;
10045;SDS011;5063;50.878;4.742;2023-12-22T13:20:44;6.90;;;2.20;;
10045;SDS011;5063;50.878;4.742;2023-12-22T13:23:10;4.20;;;1.70;;
10045;SDS011;5063;50.878;4.742;2023-12-22T13:25:39;3.93;;;1.93;;
10045;SDS011;5063;50.878;4.742;2023-12-22T13:28:05;3.47;;;1.40;;
10045;SDS011;5063;50.878;4.742;2023-12-22T13:33:05;4.70;;;1.63;;
10045;SDS011;5063;50.878;4.742;2023-12-22T13:35:32;3.43;;;1.50;;
10045;SDS011;5063;50.878;4.742;2023-12-22T13:38:00;4.00;;;1.67;;
10045;SDS011;5063;50.878;4.742;2023-12-22T13:40:26;6.80;;;2.03;;
10045;SDS011;5063;50.878;4.742;2023-12-22T13:42:58;3.30;;;1.43;;
10045;SDS011;5063;50.878;4.742;2023-12-22T13:45:26;2.93;;;1.23;;
10045;SDS011;5063;50.878;4.742;2023-12-22T13:47:53;5.90;;;1.47;;
10045;SDS011;5063;50.878;4.742;2023-12-22T13:50:19;3.30;;;1.77;;
10045;SDS011;5063;50.878;4.742;2023-12-22T13:52:48;3.00;;;1.43;;
10045;SDS011;5063;50.878;4.742;2023-12-22T13:55:16;5.60;;;1.40;;
10045;SDS011;5063;50.878;4.742;2023-12-22T13:57:43;2.77;;;1.47;;
10045;SDS011;5063;50.878;4.742;2023-12-22T14:02:48;7.83;;;3.70;;
10045;SDS011;5063;50.878;4.742;2023-12-22T14:05:14;4.13;;;1.60;;
10045;SDS011;5063;50.878;4.742;2023-12-22T14:07:41;5.30;;;1.77;;
10045;SDS011;5063;50.878;4.742;2023-12-22T14:10:09;3.57;;;2.13;;
10045;SDS011;5063;50.878;4.742;2023-12-22T14:12:35;3.97;;;1.77;;
10045;SDS011;5063;50.878;4.742;2023-12-22T14:15:08;3.97;;;1.30;;
10045;SDS011;5063;50.878;4.742;2023-12-22T14:17:35;2.13;;;1.37;;
10045;SDS011;5063;50.878;4.742;2023-12-22T14:20:00;3.07;;;1.20;;
10045;SDS011;5063;50.878;4.742;2023-12-22T14:22:26;5.73;;;1.70;;
10045;SDS011;5063;50.878;4.742;2023-12-22T14:24:52;3.47;;;1.20;;
10045;SDS011;5063;50.878;4.742;2023-12-22T14:27:18;2.73;;;1.13;;
10045;SDS011;5063;50.878;4.742;2023-12-22T14:29:45;2.53;;;1.27;;
10045;SDS011;5063;50.878;4.742;2023-12-22T14:32:11;4.77;;;1.40;;
10045;SDS011;5063;50.878;4.742;2023-12-22T14:34:37;7.53;;;1.80;;
10045;SDS011;5063;50.878;4.742;2023-12-22T14:37:03;7.70;;;1.80;;
10045;SDS011;5063;50.878;4.742;2023-12-22T14:39:29;4.10;;;1.50;;
10045;SDS011;5063;50.878;4.742;2023-12-22T14:41:56;4.13;;;1.70;;
10045;SDS011;5063;50.878;4.742;2023-12-22T14:44:22;2.30;;;1.13;;
10045;SDS011;5063;50.878;4.742;2023-12-22T14:46:48;2.73;;;1.33;;
10045;SDS011;5063;50.878;4.742;2023-12-22T14:49:13;8.33;;;1.70;;
10045;SDS011;5063;50.878;4.742;2023-12-22T14:51:39;2.37;;;1.30;;
10045;SDS011;5063;50.878;4.742;2023-12-22T14:54:05;3.47;;;1.30;;
10045;SDS011;5063;50.878;4.742;2023-12-22T14:56:32;5.37;;;1.60;;
10045;SDS011;5063;50.878;4.742;2023-12-22T14:58:57;3.13;;;1.67;;
10045;SDS011;5063;50.878;4.742;2023-12-22T15:01:23;2.90;;;1.10;;
10045;SDS011;5063;50.878;4.742;2023-12-22T15:03:49;2.63;;;1.63;;
10045;SDS011;5063;50.878;4.742;2023-12-22T15:06:15;5.00;;;1.67;;
10045;SDS011;5063;50.878;4.742;2023-12-22T15:08:41;3.23;;;1.87;;